sensor_id;sensor_type;location;lat;lon;timestamp;P1;durP1;ratioP1;P2;durP2;ratioP2
24867;SDS011;12941;48.698;9.310;2023-07-13T00:00:41;1.5;;;0.9;;
24867;SDS011;12941;48.698;9.310;2023-07-13T00:01:41;1.5;;;0.9;;
24867;SDS011;12941;48.698;9.310;2023-07-13T00:02:42;1.5;;;0.9;;
24867;SDS011;12941;48.698;9.310;2023-07-13T00:03:42;1.5;;;0.9;;
24867;SDS011;12941;48.698;9.310;2023-07-13T00:04:46;4.1;;;1.4;;
24867;SDS011;12941;48.698;9.310;2023-07-13T00:05:46;4.1;;;1.4;;
24867;SDS011;12941;48.698;9.310;2023-07-13T00:06:47;4.1;;;1.4;;
24867;SDS011;12941;48.698;9.310;2023-07-13T00:07:52;4.1;;;1.4;;
24867;SDS011;12941;48.698;9.310;2023-07-13T00:08:56;1.8;;;1.3;;
24867;SDS011;12941;48.698;9.310;2023-07-13T00:09:57;1.8;;;1.3;;
24867;SDS011;12941;48.698;9.310;2023-07-13T00:11:02;1.8;;;1.3;;
24867;SDS011;12941;48.698;9.310;2023-07-13T00:12:01;1.8;;;1.3;;
24867;SDS011;12941;48.698;9.310;2023-07-13T00:13:01;1.8;;;1.3;;
24867;SDS011;12941;48.698;9.310;2023-07-13T00:14:01;1.8;;;1.4;;
24867;SDS011;12941;48.698;9.310;2023-07-13T00:15:07;1.8;;;1.4;;
24867;SDS011;12941;48.698;9.310;2023-07-13T00:16:07;1.8;;;1.4;;
24867;SDS011;12941;48.698;9.310;2023-07-13T00:17:07;1.8;;;1.4;;
24867;SDS011;12941;48.698;9.310;2023-07-13T00:18:07;1.8;;;1.4;;
24867;SDS011;12941;48.698;9.310;2023-07-13T00:19:07;1.9;;;1.3;;
24867;SDS011;12941;48.698;9.310;2023-07-13T00:20:12;1.9;;;1.3;;
24867;SDS011;12941;48.698;9.310;2023-07-13T00:21:17;1.9;;;1.3;;
24867;SDS011;12941;48.698;9.310;2023-07-13T00:22:22;1.9;;;1.3;;
24867;SDS011;12941;48.698;9.310;2023-07-13T00:23:26;1.9;;;1.3;;
24867;SDS011;12941;48.698;9.310;2023-07-13T00:24:27;1.5;;;1;;
24867;SDS011;12941;48.698;9.310;2023-07-13T00:25:31;1.5;;;1;;
24867;SDS011;12941;48.698;9.310;2023-07-13T00:26:32;1.5;;;1;;
24867;SDS011;12941;48.698;9.310;2023-07-13T00:27:37;1.5;;;1;;
24867;SDS011;12941;48.698;9.310;2023-07-13T00:28:37;1.5;;;1;;
24867;SDS011;12941;48.698;9.310;2023-07-13T00:29:41;1.9;;;1.1;;
24867;SDS011;12941;48.698;9.310;2023-07-13T00:30:41;1.9;;;1.1;;
24867;SDS011;12941;48.698;9.310;2023-07-13T00:31:47;1.9;;;1.1;;
24867;SDS011;12941;48.698;9.310;2023-07-13T00:32:47;1.9;;;1.1;;
24867;SDS011;12941;48.698;9.310;2023-07-13T00:33:47;2.1;;;1.3;;
24867;SDS011;12941;48.698;9.310;2023-07-13T00:34:47;2;;;1.3;;
24867;SDS011;12941;48.698;9.310;2023-07-13T00:35:53;2;;;1.3;;
24867;SDS011;12941;48.698;9.310;2023-07-13T00:36:57;2;;;1.3;;
24867;SDS011;12941;48.698;9.310;2023-07-13T00:38:02;2;;;1.3;;
24867;SDS011;12941;48.698;9.310;2023-07-13T00:39:02;3.1;;;1.1;;
24867;SDS011;12941;48.698;9.310;2023-07-13T00:40:02;3.1;;;1.1;;
24867;SDS011;12941;48.698;9.310;2023-07-13T00:41:07;3.1;;;1.1;;
24867;SDS011;12941;48.698;9.310;2023-07-13T00:42:07;3.1;;;1.1;;
24867;SDS011;12941;48.698;9.310;2023-07-13T00:43:09;3.1;;;1.1;;
24867;SDS011;12941;48.698;9.310;2023-07-13T00:44:12;2.4;;;1.2;;
24867;SDS011;12941;48.698;9.310;2023-07-13T00:46:19;2.4;;;1.2;;
24867;SDS011;12941;48.698;9.310;2023-07-13T00:47:17;2.4;;;1.2;;
24867;SDS011;12941;48.698;9.310;2023-07-13T00:48:23;2.4;;;1.2;;
24867;SDS011;12941;48.698;9.310;2023-07-13T00:49:22;2.4;;;1;;
24867;SDS011;12941;48.698;9.310;2023-07-13T00:50:27;2.4;;;1;;
24867;SDS011;12941;48.698;9.310;2023-07-13T00:51:33;2.4;;;1;;
24867;SDS011;12941;48.698;9.310;2023-07-13T00:52:32;2.4;;;1;;
24867;SDS011;12941;48.698;9.310;2023-07-13T00:53:37;2.4;;;1;;
24867;SDS011;12941;48.698;9.310;2023-07-13T00:54:43;2.7;;;1;;
24867;SDS011;12941;48.698;9.310;2023-07-13T00:55:42;2.7;;;1;;
24867;SDS011;12941;48.698;9.310;2023-07-13T00:56:42;2.7;;;1;;
24867;SDS011;12941;48.698;9.310;2023-07-13T00:57:47;2.7;;;1;;
24867;SDS011;12941;48.698;9.310;2023-07-13T00:58:47;3.2;;;1.2;;
24867;SDS011;12941;48.698;9.310;2023-07-13T00:59:52;3.2;;;1.2;;
24867;SDS011;12941;48.698;9.310;2023-07-13T01:00:57;3.2;;;1.2;;
24867;SDS011;12941;48.698;9.310;2023-07-13T01:02:02;3.2;;;1.2;;
24867;SDS011;12941;48.698;9.310;2023-07-13T01:03:02;3.2;;;1.2;;
24867;SDS011;12941;48.698;9.310;2023-07-13T01:04:02;2.7;;;1.1;;
24867;SDS011;12941;48.698;9.310;2023-07-13T01:05:04;2.7;;;1.1;;
24867;SDS011;12941;48.698;9.310;2023-07-13T01:06:02;2.7;;;1.1;;
24867;SDS011;12941;48.698;9.310;2023-07-13T01:07:02;2.7;;;1.1;;
24867;SDS011;12941;48.698;9.310;2023-07-13T01:08:07;2.7;;;1.1;;
24867;SDS011;12941;48.698;9.310;2023-07-13T01:09:07;2.6;;;1;;
24867;SDS011;12941;48.698;9.310;2023-07-13T01:10:12;2.6;;;1;;
24867;SDS011;12941;48.698;9.310;2023-07-13T01:11:12;2.6;;;1;;
24867;SDS011;12941;48.698;9.310;2023-07-13T01:12:17;2.6;;;1;;
24867;SDS011;12941;48.698;9.310;2023-07-13T01:13:17;2.6;;;1;;
24867;SDS011;12941;48.698;9.310;2023-07-13T01:14:17;3.9;;;1.2;;
24867;SDS011;12941;48.698;9.310;2023-07-13T01:15:40;3.9;;;1.2;;
24867;SDS011;12941;48.698;9.310;2023-07-13T01:16:24;3.9;;;1.2;;
24867;SDS011;12941;48.698;9.310;2023-07-13T01:17:22;3.9;;;1.2;;
24867;SDS011;12941;48.698;9.310;2023-07-13T01:18:23;3.9;;;1.2;;
24867;SDS011;12941;48.698;9.310;2023-07-13T01:19:29;2.2;;;0.9;;
24867;SDS011;12941;48.698;9.310;2023-07-13T01:20:27;2.2;;;0.9;;
24867;SDS011;12941;48.698;9.310;2023-07-13T01:21:32;2.2;;;0.9;;
24867;SDS011;12941;48.698;9.310;2023-07-13T01:22:32;2.2;;;0.9;;
24867;SDS011;12941;48.698;9.310;2023-07-13T01:23:32;2.2;;;0.9;;
24867;SDS011;12941;48.698;9.310;2023-07-13T01:24:37;1.8;;;1;;
24867;SDS011;12941;48.698;9.310;2023-07-13T01:25:37;1.8;;;1;;
24867;SDS011;12941;48.698;9.310;2023-07-13T01:26:37;1.8;;;1;;
24867;SDS011;12941;48.698;9.310;2023-07-13T01:27:42;1.8;;;1;;
24867;SDS011;12941;48.698;9.310;2023-07-13T01:28:47;2.2;;;0.8;;
24867;SDS011;12941;48.698;9.310;2023-07-13T01:29:52;2.3;;;0.8;;
24867;SDS011;12941;48.698;9.310;2023-07-13T01:30:57;2.3;;;0.8;;
24867;SDS011;12941;48.698;9.310;2023-07-13T01:31:57;2.3;;;0.8;;
24867;SDS011;12941;48.698;9.310;2023-07-13T01:32:57;2.3;;;0.8;;
24867;SDS011;12941;48.698;9.310;2023-07-13T01:33:57;3.5;;;1.3;;
24867;SDS011;12941;48.698;9.310;2023-07-13T01:34:57;3.5;;;1.3;;
24867;SDS011;12941;48.698;9.310;2023-07-13T01:35:57;3.5;;;1.3;;
24867;SDS011;12941;48.698;9.310;2023-07-13T01:37:02;3.5;;;1.3;;
24867;SDS011;12941;48.698;9.310;2023-07-13T01:38:07;3.5;;;1.3;;
24867;SDS011;12941;48.698;9.310;2023-07-13T01:39:07;4.2;;;1.1;;
24867;SDS011;12941;48.698;9.310;2023-07-13T01:40:12;4.2;;;1.1;;
24867;SDS011;12941;48.698;9.310;2023-07-13T01:41:12;4.2;;;1.1;;
24867;SDS011;12941;48.698;9.310;2023-07-13T01:42:12;4.2;;;1.1;;
24867;SDS011;12941;48.698;9.310;2023-07-13T01:43:12;4.2;;;1.1;;
24867;SDS011;12941;48.698;9.310;2023-07-13T01:44:17;2.2;;;1;;
24867;SDS011;12941;48.698;9.310;2023-07-13T01:45:17;2.2;;;1;;
24867;SDS011;12941;48.698;9.310;2023-07-13T01:46:17;2.2;;;1;;
24867;SDS011;12941;48.698;9.310;2023-07-13T01:47:22;2.2;;;1;;
24867;SDS011;12941;48.698;9.310;2023-07-13T01:48:22;2.2;;;1;;
24867;SDS011;12941;48.698;9.310;2023-07-13T01:49:27;2.6;;;1;;
24867;SDS011;12941;48.698;9.310;2023-07-13T01:50:32;2.6;;;1;;
24867;SDS011;12941;48.698;9.310;2023-07-13T01:51:32;2.6;;;1;;
24867;SDS011;12941;48.698;9.310;2023-07-13T01:52:32;2.6;;;1;;
24867;SDS011;12941;48.698;9.310;2023-07-13T01:53:37;2.6;;;1;;
24867;SDS011;12941;48.698;9.310;2023-07-13T01:54:42;3.1;;;1.3;;
24867;SDS011;12941;48.698;9.310;2023-07-13T01:55:47;3.1;;;1.3;;
24867;SDS011;12941;48.698;9.310;2023-07-13T01:56:47;3.1;;;1.3;;
24867;SDS011;12941;48.698;9.310;2023-07-13T01:57:52;3.1;;;1.3;;
24867;SDS011;12941;48.698;9.310;2023-07-13T01:58:57;4.6;;;1.2;;
24867;SDS011;12941;48.698;9.310;2023-07-13T01:59:57;4.6;;;1.2;;
24867;SDS011;12941;48.698;9.310;2023-07-13T02:01:02;4.6;;;1.2;;
24867;SDS011;12941;48.698;9.310;2023-07-13T02:02:02;4.6;;;1.2;;
24867;SDS011;12941;48.698;9.310;2023-07-13T02:03:07;4.6;;;1.2;;
24867;SDS011;12941;48.698;9.310;2023-07-13T02:04:07;1.4;;;1;;
24867;SDS011;12941;48.698;9.310;2023-07-13T02:05:07;1.4;;;1;;
24867;SDS011;12941;48.698;9.310;2023-07-13T02:06:07;1.4;;;1;;
24867;SDS011;12941;48.698;9.310;2023-07-13T02:07:12;1.4;;;1;;
24867;SDS011;12941;48.698;9.310;2023-07-13T02:08:12;1.4;;;1;;
24867;SDS011;12941;48.698;9.310;2023-07-13T02:09:17;3.6;;;1.3;;
24867;SDS011;12941;48.698;9.310;2023-07-13T02:10:17;3.6;;;1.3;;
24867;SDS011;12941;48.698;9.310;2023-07-13T02:11:17;3.6;;;1.3;;
24867;SDS011;12941;48.698;9.310;2023-07-13T02:12:17;3.6;;;1.3;;
24867;SDS011;12941;48.698;9.310;2023-07-13T02:13:22;3.6;;;1.3;;
24867;SDS011;12941;48.698;9.310;2023-07-13T02:14:22;1.6;;;1.3;;
24867;SDS011;12941;48.698;9.310;2023-07-13T02:15:22;1.6;;;1.3;;
24867;SDS011;12941;48.698;9.310;2023-07-13T02:16:27;1.6;;;1.3;;
24867;SDS011;12941;48.698;9.310;2023-07-13T02:17:27;1.6;;;1.3;;
24867;SDS011;12941;48.698;9.310;2023-07-13T02:18:27;1.6;;;1.3;;
24867;SDS011;12941;48.698;9.310;2023-07-13T02:19:32;1.3;;;1;;
24867;SDS011;12941;48.698;9.310;2023-07-13T02:20:32;1.3;;;1;;
24867;SDS011;12941;48.698;9.310;2023-07-13T02:21:37;1.3;;;1;;
24867;SDS011;12941;48.698;9.310;2023-07-13T02:22:42;1.3;;;1;;
24867;SDS011;12941;48.698;9.310;2023-07-13T02:23:47;2.5;;;1.5;;
24867;SDS011;12941;48.698;9.310;2023-07-13T02:24:52;2.3;;;1.4;;
24867;SDS011;12941;48.698;9.310;2023-07-13T02:25:54;2.3;;;1.4;;
24867;SDS011;12941;48.698;9.310;2023-07-13T02:26:52;2.3;;;1.4;;
24867;SDS011;12941;48.698;9.310;2023-07-13T02:27:57;2.3;;;1.4;;
24867;SDS011;12941;48.698;9.310;2023-07-13T02:29:02;2.3;;;1.1;;
24867;SDS011;12941;48.698;9.310;2023-07-13T02:30:02;2.3;;;1.1;;
24867;SDS011;12941;48.698;9.310;2023-07-13T02:31:05;2.3;;;1.1;;
24867;SDS011;12941;48.698;9.310;2023-07-13T02:32:07;2.3;;;1.1;;
24867;SDS011;12941;48.698;9.310;2023-07-13T02:33:07;2.3;;;1.1;;
24867;SDS011;12941;48.698;9.310;2023-07-13T02:34:07;4.6;;;1.2;;
24867;SDS011;12941;48.698;9.310;2023-07-13T02:35:12;4.6;;;1.2;;
24867;SDS011;12941;48.698;9.310;2023-07-13T02:36:17;4.6;;;1.2;;
24867;SDS011;12941;48.698;9.310;2023-07-13T02:37:17;4.6;;;1.2;;
24867;SDS011;12941;48.698;9.310;2023-07-13T02:38:17;4.6;;;1.2;;
24867;SDS011;12941;48.698;9.310;2023-07-13T02:39:17;2.9;;;1.4;;
24867;SDS011;12941;48.698;9.310;2023-07-13T02:40:17;2.9;;;1.4;;
24867;SDS011;12941;48.698;9.310;2023-07-13T02:41:22;2.9;;;1.4;;
24867;SDS011;12941;48.698;9.310;2023-07-13T02:42:22;2.9;;;1.4;;
24867;SDS011;12941;48.698;9.310;2023-07-13T02:43:27;2.9;;;1.4;;
24867;SDS011;12941;48.698;9.310;2023-07-13T02:44:27;1.4;;;1.1;;
24867;SDS011;12941;48.698;9.310;2023-07-13T02:45:32;1.4;;;1.1;;
24867;SDS011;12941;48.698;9.310;2023-07-13T03:27:32;1.8;;;1.3;;
24867;SDS011;12941;48.698;9.310;2023-07-13T03:28:37;1.8;;;1.3;;
24867;SDS011;12941;48.698;9.310;2023-07-13T03:29:37;2.6;;;1.2;;
24867;SDS011;12941;48.698;9.310;2023-07-13T03:30:42;2.6;;;1.2;;
24867;SDS011;12941;48.698;9.310;2023-07-13T03:31:42;2.6;;;1.2;;
24867;SDS011;12941;48.698;9.310;2023-07-13T03:32:42;2.6;;;1.2;;
24867;SDS011;12941;48.698;9.310;2023-07-13T03:33:48;1.8;;;1.1;;
24867;SDS011;12941;48.698;9.310;2023-07-13T03:34:52;1.8;;;1.1;;
24867;SDS011;12941;48.698;9.310;2023-07-13T03:35:52;1.8;;;1.1;;
24867;SDS011;12941;48.698;9.310;2023-07-13T03:36:57;1.8;;;1.1;;
24867;SDS011;12941;48.698;9.310;2023-07-13T03:38:02;1.8;;;1.1;;
24867;SDS011;12941;48.698;9.310;2023-07-13T03:39:08;3;;;1.7;;
24867;SDS011;12941;48.698;9.310;2023-07-13T03:40:08;3;;;1.7;;
24867;SDS011;12941;48.698;9.310;2023-07-13T03:41:07;3;;;1.7;;
24867;SDS011;12941;48.698;9.310;2023-07-13T03:42:13;3;;;1.7;;
24867;SDS011;12941;48.698;9.310;2023-07-13T03:43:18;3;;;1.7;;
24867;SDS011;12941;48.698;9.310;2023-07-13T03:44:18;2.2;;;1.5;;
24867;SDS011;12941;48.698;9.310;2023-07-13T03:45:23;2.2;;;1.5;;
24867;SDS011;12941;48.698;9.310;2023-07-13T03:46:23;2.2;;;1.5;;
24867;SDS011;12941;48.698;9.310;2023-07-13T03:47:28;2.2;;;1.5;;
24867;SDS011;12941;48.698;9.310;2023-07-13T03:48:33;2.2;;;1.5;;
24867;SDS011;12941;48.698;9.310;2023-07-13T03:49:33;3.7;;;1.2;;
24867;SDS011;12941;48.698;9.310;2023-07-13T03:50:37;3.7;;;1.2;;
24867;SDS011;12941;48.698;9.310;2023-07-13T03:51:37;3.7;;;1.2;;
24867;SDS011;12941;48.698;9.310;2023-07-13T03:52:37;3.7;;;1.2;;
24867;SDS011;12941;48.698;9.310;2023-07-13T03:53:38;3.7;;;1.2;;
24867;SDS011;12941;48.698;9.310;2023-07-13T03:54:38;2.5;;;1.5;;
24867;SDS011;12941;48.698;9.310;2023-07-13T03:55:38;2.5;;;1.5;;
24867;SDS011;12941;48.698;9.310;2023-07-13T03:56:38;2.5;;;1.5;;
24867;SDS011;12941;48.698;9.310;2023-07-13T03:57:38;2.5;;;1.5;;
24867;SDS011;12941;48.698;9.310;2023-07-13T03:58:44;2.5;;;1.5;;
24867;SDS011;12941;48.698;9.310;2023-07-13T03:59:43;2;;;1.2;;
24867;SDS011;12941;48.698;9.310;2023-07-13T04:00:43;2;;;1.2;;
24867;SDS011;12941;48.698;9.310;2023-07-13T04:01:48;2;;;1.2;;
24867;SDS011;12941;48.698;9.310;2023-07-13T04:02:48;2;;;1.2;;
24867;SDS011;12941;48.698;9.310;2023-07-13T04:03:50;3.3;;;1.3;;
24867;SDS011;12941;48.698;9.310;2023-07-13T04:04:53;3.3;;;1.3;;
24867;SDS011;12941;48.698;9.310;2023-07-13T04:05:53;3.3;;;1.3;;
24867;SDS011;12941;48.698;9.310;2023-07-13T04:06:58;3.3;;;1.3;;
24867;SDS011;12941;48.698;9.310;2023-07-13T04:07:58;3.3;;;1.3;;
24867;SDS011;12941;48.698;9.310;2023-07-13T04:08:58;2.8;;;1.3;;
24867;SDS011;12941;48.698;9.310;2023-07-13T04:09:58;2.8;;;1.3;;
24867;SDS011;12941;48.698;9.310;2023-07-13T04:10:58;2.8;;;1.3;;
24867;SDS011;12941;48.698;9.310;2023-07-13T04:12:03;2.8;;;1.3;;
24867;SDS011;12941;48.698;9.310;2023-07-13T04:13:03;2.8;;;1.3;;
24867;SDS011;12941;48.698;9.310;2023-07-13T04:14:03;2.4;;;1.3;;
24867;SDS011;12941;48.698;9.310;2023-07-13T04:15:08;2.4;;;1.3;;
24867;SDS011;12941;48.698;9.310;2023-07-13T04:16:08;2.4;;;1.3;;
24867;SDS011;12941;48.698;9.310;2023-07-13T04:17:13;2.4;;;1.3;;
24867;SDS011;12941;48.698;9.310;2023-07-13T04:18:18;2.4;;;1.3;;
24867;SDS011;12941;48.698;9.310;2023-07-13T04:19:18;2.7;;;1.4;;
24867;SDS011;12941;48.698;9.310;2023-07-13T04:20:18;2.7;;;1.4;;
24867;SDS011;12941;48.698;9.310;2023-07-13T04:21:23;2.7;;;1.4;;
24867;SDS011;12941;48.698;9.310;2023-07-13T04:22:23;2.7;;;1.4;;
24867;SDS011;12941;48.698;9.310;2023-07-13T04:23:29;2.7;;;1.4;;
24867;SDS011;12941;48.698;9.310;2023-07-13T04:24:33;3.2;;;1.4;;
24867;SDS011;12941;48.698;9.310;2023-07-13T04:25:33;3.2;;;1.4;;
24867;SDS011;12941;48.698;9.310;2023-07-13T04:26:33;3.2;;;1.4;;
24867;SDS011;12941;48.698;9.310;2023-07-13T04:27:33;3.2;;;1.4;;
24867;SDS011;12941;48.698;9.310;2023-07-13T04:28:38;3.2;;;1.4;;
24867;SDS011;12941;48.698;9.310;2023-07-13T04:29:43;3.5;;;1.3;;
24867;SDS011;12941;48.698;9.310;2023-07-13T04:30:48;3.5;;;1.3;;
24867;SDS011;12941;48.698;9.310;2023-07-13T04:31:48;3.5;;;1.3;;
24867;SDS011;12941;48.698;9.310;2023-07-13T04:32:50;3.5;;;1.3;;
24867;SDS011;12941;48.698;9.310;2023-07-13T04:33:50;2.1;;;1.3;;
24867;SDS011;12941;48.698;9.310;2023-07-13T04:34:53;2.1;;;1.3;;
24867;SDS011;12941;48.698;9.310;2023-07-13T04:35:54;2.1;;;1.3;;
24867;SDS011;12941;48.698;9.310;2023-07-13T04:36:53;2.1;;;1.3;;
24867;SDS011;12941;48.698;9.310;2023-07-13T04:37:53;2.1;;;1.3;;
24867;SDS011;12941;48.698;9.310;2023-07-13T04:38:58;2.1;;;1.1;;
24867;SDS011;12941;48.698;9.310;2023-07-13T04:40:03;2.1;;;1.1;;
24867;SDS011;12941;48.698;9.310;2023-07-13T04:41:08;2.1;;;1.1;;
24867;SDS011;12941;48.698;9.310;2023-07-13T04:42:13;2.1;;;1.1;;
24867;SDS011;12941;48.698;9.310;2023-07-13T04:43:13;2.1;;;1.1;;
24867;SDS011;12941;48.698;9.310;2023-07-13T04:44:18;2.6;;;1.3;;
24867;SDS011;12941;48.698;9.310;2023-07-13T04:45:18;2.6;;;1.3;;
24867;SDS011;12941;48.698;9.310;2023-07-13T04:46:18;2.6;;;1.3;;
24867;SDS011;12941;48.698;9.310;2023-07-13T04:47:23;2.6;;;1.3;;
24867;SDS011;12941;48.698;9.310;2023-07-13T04:48:29;2.6;;;1.3;;
24867;SDS011;12941;48.698;9.310;2023-07-13T04:49:29;2.3;;;1.3;;
24867;SDS011;12941;48.698;9.310;2023-07-13T04:50:29;2.3;;;1.3;;
24867;SDS011;12941;48.698;9.310;2023-07-13T04:51:33;2.3;;;1.3;;
24867;SDS011;12941;48.698;9.310;2023-07-13T04:52:33;2.3;;;1.3;;
24867;SDS011;12941;48.698;9.310;2023-07-13T04:53:33;2.3;;;1.3;;
24867;SDS011;12941;48.698;9.310;2023-07-13T04:54:34;2.5;;;1.2;;
24867;SDS011;12941;48.698;9.310;2023-07-13T04:55:39;2.5;;;1.2;;
24867;SDS011;12941;48.698;9.310;2023-07-13T04:56:43;2.5;;;1.2;;
24867;SDS011;12941;48.698;9.310;2023-07-13T04:57:49;2.5;;;1.2;;
24867;SDS011;12941;48.698;9.310;2023-07-13T04:58:49;2.8;;;1.3;;
24867;SDS011;12941;48.698;9.310;2023-07-13T04:59:53;2.9;;;1.3;;
24867;SDS011;12941;48.698;9.310;2023-07-13T05:00:59;2.9;;;1.3;;
24867;SDS011;12941;48.698;9.310;2023-07-13T05:01:59;2.9;;;1.3;;
24867;SDS011;12941;48.698;9.310;2023-07-13T05:03:04;2.9;;;1.3;;
24867;SDS011;12941;48.698;9.310;2023-07-13T05:04:09;2;;;1.3;;
24867;SDS011;12941;48.698;9.310;2023-07-13T05:05:09;2;;;1.3;;
24867;SDS011;12941;48.698;9.310;2023-07-13T05:06:14;2;;;1.3;;
24867;SDS011;12941;48.698;9.310;2023-07-13T05:07:14;2;;;1.3;;
24867;SDS011;12941;48.698;9.310;2023-07-13T05:08:14;2;;;1.3;;
24867;SDS011;12941;48.698;9.310;2023-07-13T05:09:19;2.9;;;1.3;;
24867;SDS011;12941;48.698;9.310;2023-07-13T05:10:24;2.9;;;1.3;;
24867;SDS011;12941;48.698;9.310;2023-07-13T05:11:24;2.9;;;1.3;;
24867;SDS011;12941;48.698;9.310;2023-07-13T05:12:24;2.9;;;1.3;;
24867;SDS011;12941;48.698;9.310;2023-07-13T05:13:29;2.9;;;1.3;;
24867;SDS011;12941;48.698;9.310;2023-07-13T05:14:29;2.2;;;1.4;;
24867;SDS011;12941;48.698;9.310;2023-07-13T05:15:34;2.2;;;1.4;;
24867;SDS011;12941;48.698;9.310;2023-07-13T05:16:34;2.2;;;1.4;;
24867;SDS011;12941;48.698;9.310;2023-07-13T05:17:34;2.2;;;1.4;;
24867;SDS011;12941;48.698;9.310;2023-07-13T05:18:39;2.2;;;1.4;;
24867;SDS011;12941;48.698;9.310;2023-07-13T05:19:44;2.3;;;1.4;;
24867;SDS011;12941;48.698;9.310;2023-07-13T05:20:44;2.3;;;1.4;;
24867;SDS011;12941;48.698;9.310;2023-07-13T05:21:49;2.3;;;1.4;;
24867;SDS011;12941;48.698;9.310;2023-07-13T05:22:54;2.3;;;1.4;;
24867;SDS011;12941;48.698;9.310;2023-07-13T05:23:54;2.5;;;1.2;;
24867;SDS011;12941;48.698;9.310;2023-07-13T05:24:54;2.5;;;1.2;;
24867;SDS011;12941;48.698;9.310;2023-07-13T05:25:59;2.5;;;1.2;;
24867;SDS011;12941;48.698;9.310;2023-07-13T05:27:04;2.5;;;1.2;;
24867;SDS011;12941;48.698;9.310;2023-07-13T05:28:04;2.5;;;1.2;;
24867;SDS011;12941;48.698;9.310;2023-07-13T05:29:09;2.7;;;1.4;;
24867;SDS011;12941;48.698;9.310;2023-07-13T05:30:09;2.7;;;1.4;;
24867;SDS011;12941;48.698;9.310;2023-07-13T05:31:14;2.7;;;1.4;;
24867;SDS011;12941;48.698;9.310;2023-07-13T05:32:14;2.7;;;1.4;;
24867;SDS011;12941;48.698;9.310;2023-07-13T05:33:19;2.7;;;1.4;;
24867;SDS011;12941;48.698;9.310;2023-07-13T05:34:24;4.3;;;1.4;;
24867;SDS011;12941;48.698;9.310;2023-07-13T05:35:24;4.3;;;1.4;;
24867;SDS011;12941;48.698;9.310;2023-07-13T05:36:29;4.3;;;1.4;;
24867;SDS011;12941;48.698;9.310;2023-07-13T05:37:34;4.3;;;1.4;;
24867;SDS011;12941;48.698;9.310;2023-07-13T05:38:34;4.3;;;1.4;;
24867;SDS011;12941;48.698;9.310;2023-07-13T05:39:34;3.8;;;1.3;;
24867;SDS011;12941;48.698;9.310;2023-07-13T05:40:39;3.8;;;1.3;;
24867;SDS011;12941;48.698;9.310;2023-07-13T05:41:39;3.8;;;1.3;;
24867;SDS011;12941;48.698;9.310;2023-07-13T05:42:39;3.8;;;1.3;;
24867;SDS011;12941;48.698;9.310;2023-07-13T05:43:39;3.8;;;1.3;;
24867;SDS011;12941;48.698;9.310;2023-07-13T05:44:44;2.2;;;1.2;;
24867;SDS011;12941;48.698;9.310;2023-07-13T05:45:50;2.2;;;1.2;;
24867;SDS011;12941;48.698;9.310;2023-07-13T05:46:54;2.2;;;1.2;;
24867;SDS011;12941;48.698;9.310;2023-07-13T05:47:59;2.2;;;1.2;;
24867;SDS011;12941;48.698;9.310;2023-07-13T05:48:59;4;;;1.6;;
24867;SDS011;12941;48.698;9.310;2023-07-13T05:49:59;4;;;1.6;;
24867;SDS011;12941;48.698;9.310;2023-07-13T05:51:00;4;;;1.6;;
24867;SDS011;12941;48.698;9.310;2023-07-13T05:51:59;4;;;1.6;;
24867;SDS011;12941;48.698;9.310;2023-07-13T05:52:59;4;;;1.6;;
24867;SDS011;12941;48.698;9.310;2023-07-13T05:53:59;3.2;;;1.4;;
24867;SDS011;12941;48.698;9.310;2023-07-13T05:54:59;3.2;;;1.4;;
24867;SDS011;12941;48.698;9.310;2023-07-13T05:55:59;3.2;;;1.4;;
24867;SDS011;12941;48.698;9.310;2023-07-13T05:57:04;3.2;;;1.4;;
24867;SDS011;12941;48.698;9.310;2023-07-13T05:58:10;3.2;;;1.4;;
24867;SDS011;12941;48.698;9.310;2023-07-13T05:59:09;3.9;;;1.4;;
24867;SDS011;12941;48.698;9.310;2023-07-13T06:00:10;3.9;;;1.4;;
24867;SDS011;12941;48.698;9.310;2023-07-13T06:01:14;3.9;;;1.4;;
24867;SDS011;12941;48.698;9.310;2023-07-13T06:02:14;3.9;;;1.4;;
24867;SDS011;12941;48.698;9.310;2023-07-13T06:03:19;3.9;;;1.4;;
24867;SDS011;12941;48.698;9.310;2023-07-13T06:04:19;3.2;;;1.4;;
24867;SDS011;12941;48.698;9.310;2023-07-13T06:05:19;3.2;;;1.4;;
24867;SDS011;12941;48.698;9.310;2023-07-13T06:06:19;3.2;;;1.4;;
24867;SDS011;12941;48.698;9.310;2023-07-13T06:07:24;3.2;;;1.4;;
24867;SDS011;12941;48.698;9.310;2023-07-13T06:08:29;3.2;;;1.4;;
24867;SDS011;12941;48.698;9.310;2023-07-13T06:09:29;3.1;;;1.3;;
24867;SDS011;12941;48.698;9.310;2023-07-13T06:10:31;3.1;;;1.3;;
24867;SDS011;12941;48.698;9.310;2023-07-13T06:11:29;3.1;;;1.3;;
24867;SDS011;12941;48.698;9.310;2023-07-13T06:12:29;3.1;;;1.3;;
24867;SDS011;12941;48.698;9.310;2023-07-13T06:13:35;3.1;;;1.3;;
24867;SDS011;12941;48.698;9.310;2023-07-13T06:14:39;2;;;1.2;;
24867;SDS011;12941;48.698;9.310;2023-07-13T06:15:39;2;;;1.2;;
24867;SDS011;12941;48.698;9.310;2023-07-13T06:16:44;2;;;1.2;;
24867;SDS011;12941;48.698;9.310;2023-07-13T06:17:50;2;;;1.2;;
24867;SDS011;12941;48.698;9.310;2023-07-13T06:18:50;3.6;;;1.5;;
24867;SDS011;12941;48.698;9.310;2023-07-13T06:19:54;3.6;;;1.5;;
24867;SDS011;12941;48.698;9.310;2023-07-13T06:21:00;3.6;;;1.5;;
24867;SDS011;12941;48.698;9.310;2023-07-13T06:22:00;3.6;;;1.5;;
24867;SDS011;12941;48.698;9.310;2023-07-13T06:23:04;3.6;;;1.5;;
24867;SDS011;12941;48.698;9.310;2023-07-13T06:24:10;2.6;;;1.6;;
24867;SDS011;12941;48.698;9.310;2023-07-13T06:25:15;2.6;;;1.6;;
24867;SDS011;12941;48.698;9.310;2023-07-13T06:26:15;2.6;;;1.6;;
24867;SDS011;12941;48.698;9.310;2023-07-13T06:27:15;2.6;;;1.6;;
24867;SDS011;12941;48.698;9.310;2023-07-13T06:28:20;2.6;;;1.6;;
24867;SDS011;12941;48.698;9.310;2023-07-13T06:29:20;1.6;;;1.2;;
24867;SDS011;12941;48.698;9.310;2023-07-13T06:30:25;1.6;;;1.2;;
24867;SDS011;12941;48.698;9.310;2023-07-13T06:31:25;1.6;;;1.2;;
24867;SDS011;12941;48.698;9.310;2023-07-13T06:32:30;1.6;;;1.2;;
24867;SDS011;12941;48.698;9.310;2023-07-13T06:33:30;1.6;;;1.2;;
24867;SDS011;12941;48.698;9.310;2023-07-13T06:34:35;1.9;;;1.3;;
24867;SDS011;12941;48.698;9.310;2023-07-13T06:35:35;1.9;;;1.3;;
24867;SDS011;12941;48.698;9.310;2023-07-13T06:36:40;1.9;;;1.3;;
24867;SDS011;12941;48.698;9.310;2023-07-13T06:37:40;1.9;;;1.3;;
24867;SDS011;12941;48.698;9.310;2023-07-13T06:38:45;1.9;;;1.3;;
24867;SDS011;12941;48.698;9.310;2023-07-13T06:39:45;3.2;;;1.2;;
24867;SDS011;12941;48.698;9.310;2023-07-13T06:40:50;3.2;;;1.2;;
24867;SDS011;12941;48.698;9.310;2023-07-13T06:41:50;3.2;;;1.2;;
24867;SDS011;12941;48.698;9.310;2023-07-13T06:42:50;3.2;;;1.2;;
24867;SDS011;12941;48.698;9.310;2023-07-13T06:43:51;4.4;;;1.3;;
24867;SDS011;12941;48.698;9.310;2023-07-13T06:44:55;4.4;;;1.3;;
24867;SDS011;12941;48.698;9.310;2023-07-13T06:45:55;4.4;;;1.3;;
24867;SDS011;12941;48.698;9.310;2023-07-13T06:47:00;4.4;;;1.3;;
24867;SDS011;12941;48.698;9.310;2023-07-13T06:48:05;4.4;;;1.3;;
24867;SDS011;12941;48.698;9.310;2023-07-13T06:49:05;3;;;1.5;;
24867;SDS011;12941;48.698;9.310;2023-07-13T06:50:10;3;;;1.5;;
24867;SDS011;12941;48.698;9.310;2023-07-13T06:51:10;3;;;1.5;;
24867;SDS011;12941;48.698;9.310;2023-07-13T06:52:15;3;;;1.5;;
24867;SDS011;12941;48.698;9.310;2023-07-13T06:53:20;3;;;1.5;;
24867;SDS011;12941;48.698;9.310;2023-07-13T06:54:20;2.1;;;1.2;;
24867;SDS011;12941;48.698;9.310;2023-07-13T06:55:20;2.1;;;1.2;;
24867;SDS011;12941;48.698;9.310;2023-07-13T06:56:20;2.1;;;1.2;;
24867;SDS011;12941;48.698;9.310;2023-07-13T06:57:21;2.1;;;1.2;;
24867;SDS011;12941;48.698;9.310;2023-07-13T06:58:21;2.1;;;1.2;;
24867;SDS011;12941;48.698;9.310;2023-07-13T06:59:25;3.6;;;1.4;;
24867;SDS011;12941;48.698;9.310;2023-07-13T07:00:25;3.6;;;1.4;;
24867;SDS011;12941;48.698;9.310;2023-07-13T07:01:30;3.6;;;1.4;;
24867;SDS011;12941;48.698;9.310;2023-07-13T07:02:30;3.6;;;1.4;;
24867;SDS011;12941;48.698;9.310;2023-07-13T07:03:30;3.6;;;1.4;;
24867;SDS011;12941;48.698;9.310;2023-07-13T07:04:35;4.1;;;2;;
24867;SDS011;12941;48.698;9.310;2023-07-13T07:05:35;4.1;;;2;;
24867;SDS011;12941;48.698;9.310;2023-07-13T07:06:35;4.1;;;2;;
24867;SDS011;12941;48.698;9.310;2023-07-13T07:07:35;4.1;;;2;;
24867;SDS011;12941;48.698;9.310;2023-07-13T07:08:40;4.1;;;2;;
24867;SDS011;12941;48.698;9.310;2023-07-13T07:09:45;2.4;;;1.4;;
24867;SDS011;12941;48.698;9.310;2023-07-13T07:10:50;2.4;;;1.4;;
24867;SDS011;12941;48.698;9.310;2023-07-13T07:11:50;2.4;;;1.4;;